sensor_id;sensor_type;location;lat;lon;timestamp;temperature;humidity
15105;DHT22;7653;48.994;9.212;2023-07-20T00:01:59;20.70;13.20
15105;DHT22;7653;48.994;9.212;2023-07-20T00:04:24;20.60;13.10
15105;DHT22;7653;48.994;9.212;2023-07-20T00:06:50;20.60;13.10
15105;DHT22;7653;48.994;9.212;2023-07-20T00:09:16;20.60;13.00
15105;DHT22;7653;48.994;9.212;2023-07-20T00:11:49;20.60;13.00
15105;DHT22;7653;48.994;9.212;2023-07-20T00:14:16;20.50;13.00
15105;DHT22;7653;48.994;9.212;2023-07-20T00:16:42;20.50;13.00
15105;DHT22;7653;48.994;9.212;2023-07-20T00:19:08;20.50;13.10
15105;DHT22;7653;48.994;9.212;2023-07-20T00:21:34;20.50;13.60
15105;DHT22;7653;48.994;9.212;2023-07-20T00:24:00;20.40;13.80
15105;DHT22;7653;48.994;9.212;2023-07-20T00:26:25;20.30;14.00
15105;DHT22;7653;48.994;9.212;2023-07-20T00:28:51;20.30;14.10
15105;DHT22;7653;48.994;9.212;2023-07-20T00:31:17;20.30;14.20
15105;DHT22;7653;48.994;9.212;2023-07-20T00:33:43;20.30;14.20
15105;DHT22;7653;48.994;9.212;2023-07-20T00:36:08;20.20;14.40
15105;DHT22;7653;48.994;9.212;2023-07-20T00:38:34;20.20;14.40
15105;DHT22;7653;48.994;9.212;2023-07-20T00:40:59;20.10;14.40
15105;DHT22;7653;48.994;9.212;2023-07-20T00:43:25;20.10;14.60
15105;DHT22;7653;48.994;9.212;2023-07-20T00:45:51;20.00;14.80
15105;DHT22;7653;48.994;9.212;2023-07-20T00:48:16;20.00;15.10
15105;DHT22;7653;48.994;9.212;2023-07-20T00:50:42;19.90;15.20
15105;DHT22;7653;48.994;9.212;2023-07-20T00:53:08;19.90;15.30
15105;DHT22;7653;48.994;9.212;2023-07-20T00:55:34;19.80;15.60
15105;DHT22;7653;48.994;9.212;2023-07-20T00:58:00;19.80;15.80
15105;DHT22;7653;48.994;9.212;2023-07-20T01:00:26;19.70;16.00
15105;DHT22;7653;48.994;9.212;2023-07-20T01:02:53;19.70;16.70
15105;DHT22;7653;48.994;9.212;2023-07-20T01:05:19;19.60;16.70
15105;DHT22;7653;48.994;9.212;2023-07-20T01:07:57;19.60;16.70
15105;DHT22;7653;48.994;9.212;2023-07-20T01:10:39;19.50;16.60
15105;DHT22;7653;48.994;9.212;2023-07-20T01:13:07;19.50;16.60
15105;DHT22;7653;48.994;9.212;2023-07-20T01:15:34;19.50;16.90
15105;DHT22;7653;48.994;9.212;2023-07-20T01:18:00;19.40;17.20
15105;DHT22;7653;48.994;9.212;2023-07-20T01:20:28;19.40;17.80
15105;DHT22;7653;48.994;9.212;2023-07-20T01:25:53;19.30;18.10
15105;DHT22;7653;48.994;9.212;2023-07-20T01:31:27;19.30;18.60
15105;DHT22;7653;48.994;9.212;2023-07-20T01:33:58;19.10;19.00
15105;DHT22;7653;48.994;9.212;2023-07-20T01:36:26;19.10;19.50
15105;DHT22;7653;48.994;9.212;2023-07-20T01:38:53;19.00;19.70
15105;DHT22;7653;48.994;9.212;2023-07-20T01:41:20;19.00;20.40
15105;DHT22;7653;48.994;9.212;2023-07-20T01:43:46;19.00;20.50
15105;DHT22;7653;48.994;9.212;2023-07-20T01:46:12;18.90;20.40
15105;DHT22;7653;48.994;9.212;2023-07-20T01:48:37;18.90;20.40
15105;DHT22;7653;48.994;9.212;2023-07-20T01:51:03;18.90;20.40
15105;DHT22;7653;48.994;9.212;2023-07-20T01:55:57;18.80;20.60
15105;DHT22;7653;48.994;9.212;2023-07-20T01:58:23;18.80;20.80
15105;DHT22;7653;48.994;9.212;2023-07-20T02:00:51;18.80;21.10
15105;DHT22;7653;48.994;9.212;2023-07-20T02:03:17;18.70;21.40
15105;DHT22;7653;48.994;9.212;2023-07-20T02:05:42;18.70;21.70
15105;DHT22;7653;48.994;9.212;2023-07-20T02:08:09;18.70;21.70
15105;DHT22;7653;48.994;9.212;2023-07-20T02:10:35;18.60;21.80
15105;DHT22;7653;48.994;9.212;2023-07-20T02:13:01;18.60;22.10
15105;DHT22;7653;48.994;9.212;2023-07-20T02:15:26;18.60;22.30
15105;DHT22;7653;48.994;9.212;2023-07-20T02:17:53;18.60;22.70
15105;DHT22;7653;48.994;9.212;2023-07-20T02:20:19;18.60;23.10
15105;DHT22;7653;48.994;9.212;2023-07-20T02:22:45;18.50;23.90
15105;DHT22;7653;48.994;9.212;2023-07-20T02:25:11;18.50;23.40
15105;DHT22;7653;48.994;9.212;2023-07-20T02:27:37;18.40;23.60
15105;DHT22;7653;48.994;9.212;2023-07-20T02:30:04;18.40;23.70
15105;DHT22;7653;48.994;9.212;2023-07-20T02:32:31;18.40;24.10
15105;DHT22;7653;48.994;9.212;2023-07-20T02:34:57;18.30;24.20
15105;DHT22;7653;48.994;9.212;2023-07-20T02:37:24;18.30;24.20
15105;DHT22;7653;48.994;9.212;2023-07-20T02:39:50;18.30;24.20
15105;DHT22;7653;48.994;9.212;2023-07-20T02:42:16;18.20;24.10
15105;DHT22;7653;48.994;9.212;2023-07-20T02:44:41;18.20;24.10
15105;DHT22;7653;48.994;9.212;2023-07-20T02:47:07;18.10;24.20
15105;DHT22;7653;48.994;9.212;2023-07-20T02:49:33;18.10;24.50
15105;DHT22;7653;48.994;9.212;2023-07-20T02:51:58;18.10;24.80
15105;DHT22;7653;48.994;9.212;2023-07-20T02:54:24;18.00;26.40
15105;DHT22;7653;48.994;9.212;2023-07-20T02:56:52;17.90;26.80
15105;DHT22;7653;48.994;9.212;2023-07-20T02:59:18;17.90;27.20
15105;DHT22;7653;48.994;9.212;2023-07-20T03:01:44;17.80;28.50
15105;DHT22;7653;48.994;9.212;2023-07-20T03:04:10;17.80;27.90
15105;DHT22;7653;48.994;9.212;2023-07-20T03:06:36;17.80;27.90
15105;DHT22;7653;48.994;9.212;2023-07-20T03:09:02;17.70;27.80
15105;DHT22;7653;48.994;9.212;2023-07-20T03:11:29;17.70;27.90
15105;DHT22;7653;48.994;9.212;2023-07-20T03:13:54;17.50;29.40
15105;DHT22;7653;48.994;9.212;2023-07-20T03:16:21;17.40;29.30
15105;DHT22;7653;48.994;9.212;2023-07-20T03:18:47;17.40;30.10
15105;DHT22;7653;48.994;9.212;2023-07-20T03:21:12;17.40;29.70
15105;DHT22;7653;48.994;9.212;2023-07-20T03:23:39;17.40;30.00
15105;DHT22;7653;48.994;9.212;2023-07-20T03:26:05;17.20;32.00
15105;DHT22;7653;48.994;9.212;2023-07-20T03:28:36;17.00;32.70
15105;DHT22;7653;48.994;9.212;2023-07-20T03:31:03;16.90;33.60
15105;DHT22;7653;48.994;9.212;2023-07-20T03:33:30;16.90;34.50
15105;DHT22;7653;48.994;9.212;2023-07-20T03:35:56;17.00;33.80
15105;DHT22;7653;48.994;9.212;2023-07-20T03:38:23;16.90;35.20
15105;DHT22;7653;48.994;9.212;2023-07-20T03:40:52;16.70;36.60
15105;DHT22;7653;48.994;9.212;2023-07-20T03:43:19;16.60;36.50
15105;DHT22;7653;48.994;9.212;2023-07-20T03:45:44;16.50;37.50
15105;DHT22;7653;48.994;9.212;2023-07-20T03:48:21;16.40;38.40
15105;DHT22;7653;48.994;9.212;2023-07-20T03:50:48;16.20;41.00
15105;DHT22;7653;48.994;9.212;2023-07-20T03:53:15;16.10;42.50
15105;DHT22;7653;48.994;9.212;2023-07-20T03:55:44;15.90;43.60
15105;DHT22;7653;48.994;9.212;2023-07-20T03:58:11;15.90;43.80
15105;DHT22;7653;48.994;9.212;2023-07-20T04:00:37;15.90;42.40
15105;DHT22;7653;48.994;9.212;2023-07-20T04:03:03;16.10;41.10
15105;DHT22;7653;48.994;9.212;2023-07-20T04:05:28;16.30;38.80
15105;DHT22;7653;48.994;9.212;2023-07-20T04:07:54;16.40;38.30
15105;DHT22;7653;48.994;9.212;2023-07-20T04:10:20;16.40;38.50
15105;DHT22;7653;48.994;9.212;2023-07-20T04:12:46;16.30;39.20
15105;DHT22;7653;48.994;9.212;2023-07-20T04:15:15;16.40;38.40
15105;DHT22;7653;48.994;9.212;2023-07-20T04:17:41;16.40;38.20
15105;DHT22;7653;48.994;9.212;2023-07-20T04:20:07;16.40;38.50
15105;DHT22;7653;48.994;9.212;2023-07-20T04:22:34;16.50;38.90
15105;DHT22;7653;48.994;9.212;2023-07-20T04:24:59;16.40;39.50
15105;DHT22;7653;48.994;9.212;2023-07-20T04:27:25;16.40;41.40
15105;DHT22;7653;48.994;9.212;2023-07-20T04:29:51;16.40;40.10
15105;DHT22;7653;48.994;9.212;2023-07-20T04:32:17;16.50;40.60
15105;DHT22;7653;48.994;9.212;2023-07-20T04:34:43;16.60;42.40
15105;DHT22;7653;48.994;9.212;2023-07-20T04:37:08;16.60;41.60
15105;DHT22;7653;48.994;9.212;2023-07-20T04:39:34;16.70;41.70
15105;DHT22;7653;48.994;9.212;2023-07-20T04:42:00;16.70;39.70
15105;DHT22;7653;48.994;9.212;2023-07-20T04:44:25;16.80;38.60
15105;DHT22;7653;48.994;9.212;2023-07-20T04:46:51;16.80;40.60
15105;DHT22;7653;48.994;9.212;2023-07-20T04:49:17;16.90;38.90
15105;DHT22;7653;48.994;9.212;2023-07-20T04:51:42;16.90;39.00
15105;DHT22;7653;48.994;9.212;2023-07-20T04:54:08;17.00;36.90
15105;DHT22;7653;48.994;9.212;2023-07-20T04:56:34;17.20;36.70
15105;DHT22;7653;48.994;9.212;2023-07-20T04:58:59;17.40;35.90
15105;DHT22;7653;48.994;9.212;2023-07-20T05:01:25;17.40;36.40
15105;DHT22;7653;48.994;9.212;2023-07-20T05:03:52;17.60;32.30
15105;DHT22;7653;48.994;9.212;2023-07-20T05:06:18;17.80;32.40
15105;DHT22;7653;48.994;9.212;2023-07-20T05:08:44;18.00;30.70
15105;DHT22;7653;48.994;9.212;2023-07-20T05:11:10;18.10;30.20
15105;DHT22;7653;48.994;9.212;2023-07-20T05:13:37;18.20;30.20
15105;DHT22;7653;48.994;9.212;2023-07-20T05:16:03;18.30;29.40
15105;DHT22;7653;48.994;9.212;2023-07-20T05:18:28;18.40;28.90
15105;DHT22;7653;48.994;9.212;2023-07-20T05:20:54;18.50;29.70
15105;DHT22;7653;48.994;9.212;2023-07-20T05:23:20;18.60;28.50
15105;DHT22;7653;48.994;9.212;2023-07-20T05:25:47;18.80;28.60
15105;DHT22;7653;48.994;9.212;2023-07-20T05:28:19;18.80;29.50
15105;DHT22;7653;48.994;9.212;2023-07-20T05:30:44;19.00;27.80
15105;DHT22;7653;48.994;9.212;2023-07-20T05:33:10;18.80;27.70
15105;DHT22;7653;48.994;9.212;2023-07-20T05:35:36;18.90;28.60
15105;DHT22;7653;48.994;9.212;2023-07-20T05:38:02;18.80;27.60
15105;DHT22;7653;48.994;9.212;2023-07-20T05:40:29;18.80;27.40
15105;DHT22;7653;48.994;9.212;2023-07-20T05:42:55;18.90;27.40
15105;DHT22;7653;48.994;9.212;2023-07-20T05:45:22;19.10;28.00
15105;DHT22;7653;48.994;9.212;2023-07-20T05:47:48;19.30;26.70
15105;DHT22;7653;48.994;9.212;2023-07-20T05:50:13;19.20;26.10
15105;DHT22;7653;48.994;9.212;2023-07-20T05:52:40;19.20;26.10
15105;DHT22;7653;48.994;9.212;2023-07-20T05:55:09;19.30;25.80
15105;DHT22;7653;48.994;9.212;2023-07-20T05:57:35;19.30;26.00
15105;DHT22;7653;48.994;9.212;2023-07-20T06:00:01;19.30;26.00
15105;DHT22;7653;48.994;9.212;2023-07-20T06:02:26;19.50;25.60
15105;DHT22;7653;48.994;9.212;2023-07-20T06:04:52;19.50;25.40
15105;DHT22;7653;48.994;9.212;2023-07-20T06:07:17;19.50;25.60
15105;DHT22;7653;48.994;9.212;2023-07-20T06:09:43;19.50;25.80
15105;DHT22;7653;48.994;9.212;2023-07-20T06:12:09;19.60;26.10
15105;DHT22;7653;48.994;9.212;2023-07-20T06:14:35;19.90;24.80
15105;DHT22;7653;48.994;9.212;2023-07-20T06:17:00;20.00;24.50
15105;DHT22;7653;48.994;9.212;2023-07-20T06:19:26;19.90;23.70
15105;DHT22;7653;48.994;9.212;2023-07-20T06:21:52;19.90;24.40
15105;DHT22;7653;48.994;9.212;2023-07-20T06:24:17;20.00;24.00
15105;DHT22;7653;48.994;9.212;2023-07-20T06:26:43;20.00;24.80
15105;DHT22;7653;48.994;9.212;2023-07-20T06:29:09;20.00;24.50
15105;DHT22;7653;48.994;9.212;2023-07-20T06:31:35;20.30;23.70
15105;DHT22;7653;48.994;9.212;2023-07-20T06:34:01;20.50;23.40
15105;DHT22;7653;48.994;9.212;2023-07-20T06:36:27;20.60;22.40
15105;DHT22;7653;48.994;9.212;2023-07-20T06:38:53;20.50;22.70
15105;DHT22;7653;48.994;9.212;2023-07-20T06:41:19;20.50;21.60
15105;DHT22;7653;48.994;9.212;2023-07-20T06:43:45;20.40;22.50
15105;DHT22;7653;48.994;9.212;2023-07-20T06:46:11;20.50;23.40
15105;DHT22;7653;48.994;9.212;2023-07-20T06:48:37;20.70;22.50
15105;DHT22;7653;48.994;9.212;2023-07-20T06:51:02;20.90;22.30
15105;DHT22;7653;48.994;9.212;2023-07-20T06:53:29;21.10;21.80
15105;DHT22;7653;48.994;9.212;2023-07-20T06:55:55;21.10;21.80
15105;DHT22;7653;48.994;9.212;2023-07-20T06:58:23;21.20;20.70
15105;DHT22;7653;48.994;9.212;2023-07-20T07:00:49;21.20;20.90
15105;DHT22;7653;48.994;9.212;2023-07-20T07:03:14;21.20;20.40
15105;DHT22;7653;48.994;9.212;2023-07-20T07:05:40;21.20;20.90
15105;DHT22;7653;48.994;9.212;2023-07-20T07:08:06;21.40;20.10
15105;DHT22;7653;48.994;9.212;2023-07-20T07:10:32;21.40;20.30
15105;DHT22;7653;48.994;9.212;2023-07-20T07:12:58;21.40;20.00
15105;DHT22;7653;48.994;9.212;2023-07-20T07:15:24;21.30;20.70
15105;DHT22;7653;48.994;9.212;2023-07-20T07:17:49;21.50;20.50
15105;DHT22;7653;48.994;9.212;2023-07-20T07:20:16;21.60;20.70
15105;DHT22;7653;48.994;9.212;2023-07-20T07:22:41;21.30;20.70
15105;DHT22;7653;48.994;9.212;2023-07-20T07:25:09;21.20;20.80
15105;DHT22;7653;48.994;9.212;2023-07-20T07:27:35;21.30;21.20
15105;DHT22;7653;48.994;9.212;2023-07-20T07:30:02;21.50;21.00
15105;DHT22;7653;48.994;9.212;2023-07-20T07:32:28;21.70;20.70
15105;DHT22;7653;48.994;9.212;2023-07-20T07:34:54;21.70;20.80
15105;DHT22;7653;48.994;9.212;2023-07-20T07:37:19;21.50;21.10
15105;DHT22;7653;48.994;9.212;2023-07-20T07:39:45;21.50;20.90
15105;DHT22;7653;48.994;9.212;2023-07-20T07:42:11;21.30;22.10
15105;DHT22;7653;48.994;9.212;2023-07-20T07:44:41;21.40;22.20
15105;DHT22;7653;48.994;9.212;2023-07-20T07:47:07;21.40;20.40
15105;DHT22;7653;48.994;9.212;2023-07-20T07:49:32;21.60;20.70
15105;DHT22;7653;48.994;9.212;2023-07-20T07:51:58;21.70;20.80
15105;DHT22;7653;48.994;9.212;2023-07-20T07:54:24;21.70;21.30
15105;DHT22;7653;48.994;9.212;2023-07-20T07:56:50;21.70;21.00
15105;DHT22;7653;48.994;9.212;2023-07-20T07:59:16;21.60;20.70
15105;DHT22;7653;48.994;9.212;2023-07-20T08:01:42;21.60;21.10
15105;DHT22;7653;48.994;9.212;2023-07-20T08:04:08;21.70;19.50
15105;DHT22;7653;48.994;9.212;2023-07-20T08:06:34;21.60;19.50
15105;DHT22;7653;48.994;9.212;2023-07-20T08:08:59;21.70;19.20
15105;DHT22;7653;48.994;9.212;2023-07-20T08:11:25;21.50;19.10
15105;DHT22;7653;48.994;9.212;2023-07-20T08:13:50;21.70;19.80
15105;DHT22;7653;48.994;9.212;2023-07-20T08:16:16;21.70;20.00
15105;DHT22;7653;48.994;9.212;2023-07-20T08:18:43;21.90;18.50
15105;DHT22;7653;48.994;9.212;2023-07-20T08:21:09;21.80;18.70
15105;DHT22;7653;48.994;9.212;2023-07-20T08:23:34;22.30;18.50
15105;DHT22;7653;48.994;9.212;2023-07-20T08:26:00;22.30;17.80
15105;DHT22;7653;48.994;9.212;2023-07-20T08:28:26;21.90;18.30
15105;DHT22;7653;48.994;9.212;2023-07-20T08:30:53;21.70;18.80
15105;DHT22;7653;48.994;9.212;2023-07-20T08:33:19;21.80;18.60
15105;DHT22;7653;48.994;9.212;2023-07-20T08:35:45;22.10;17.80
15105;DHT22;7653;48.994;9.212;2023-07-20T08:38:11;22.00;16.60
15105;DHT22;7653;48.994;9.212;2023-07-20T08:40:42;21.90;16.80
15105;DHT22;7653;48.994;9.212;2023-07-20T08:43:08;22.10;16.70
15105;DHT22;7653;48.994;9.212;2023-07-20T08:45:36;22.30;13.20
15105;DHT22;7653;48.994;9.212;2023-07-20T08:48:05;22.40;14.30
15105;DHT22;7653;48.994;9.212;2023-07-20T08:50:31;22.60;14.50
15105;DHT22;7653;48.994;9.212;2023-07-20T08:52:59;22.40;15.40
15105;DHT22;7653;48.994;9.212;2023-07-20T08:55:28;22.30;15.30
15105;DHT22;7653;48.994;9.212;2023-07-20T08:57:56;22.00;15.40
15105;DHT22;7653;48.994;9.212;2023-07-20T09:00:22;21.90;15.40
15105;DHT22;7653;48.994;9.212;2023-07-20T09:02:53;22.10;14.10
15105;DHT22;7653;48.994;9.212;2023-07-20T09:05:20;22.20;14.20
15105;DHT22;7653;48.994;9.212;2023-07-20T09:07:46;22.30;13.90
15105;DHT22;7653;48.994;9.212;2023-07-20T09:10:12;22.60;11.70
15105;DHT22;7653;48.994;9.212;2023-07-20T09:12:42;22.40;11.90
15105;DHT22;7653;48.994;9.212;2023-07-20T09:15:10;22.30;12.90
15105;DHT22;7653;48.994;9.212;2023-07-20T09:17:36;22.20;12.60
15105;DHT22;7653;48.994;9.212;2023-07-20T09:20:07;22.50;13.30
15105;DHT22;7653;48.994;9.212;2023-07-20T09:22:36;22.90;11.20
15105;DHT22;7653;48.994;9.212;2023-07-20T09:25:12;23.10;10.40
15105;DHT22;7653;48.994;9.212;2023-07-20T09:27:45;23.30;11.20
15105;DHT22;7653;48.994;9.212;2023-07-20T09:30:12;23.10;10.50
15105;DHT22;7653;48.994;9.212;2023-07-20T09:32:49;23.30;9.80
15105;DHT22;7653;48.994;9.212;2023-07-20T09:35:21;23.30;10.60
15105;DHT22;7653;48.994;9.212;2023-07-20T09:40:20;23.00;9.90
15105;DHT22;7653;48.994;9.212;2023-07-20T09:42:46;23.50;9.80
15105;DHT22;7653;48.994;9.212;2023-07-20T09:45:12;23.40;9.40
15105;DHT22;7653;48.994;9.212;2023-07-20T09:47:38;23.30;10.00
15105;DHT22;7653;48.994;9.212;2023-07-20T09:50:05;23.00;10.40
15105;DHT22;7653;48.994;9.212;2023-07-20T09:52:39;22.70;9.70
15105;DHT22;7653;48.994;9.212;2023-07-20T09:55:07;22.70;10.20
15105;DHT22;7653;48.994;9.212;2023-07-20T09:57:34;23.10;8.70
15105;DHT22;7653;48.994;9.212;2023-07-20T10:00:00;23.40;8.90
15105;DHT22;7653;48.994;9.212;2023-07-20T10:02:32;23.60;10.10
15105;DHT22;7653;48.994;9.212;2023-07-20T10:05:02;23.90;9.70
15105;DHT22;7653;48.994;9.212;2023-07-20T10:07:30;24.20;7.70
15105;DHT22;7653;48.994;9.212;2023-07-20T10:09:59;23.80;7.60
15105;DHT22;7653;48.994;9.212;2023-07-20T10:12:28;23.90;8.20
15105;DHT22;7653;48.994;9.212;2023-07-20T10:15:03;24.00;10.70
15105;DHT22;7653;48.994;9.212;2023-07-20T10:17:37;24.00;7.20
15105;DHT22;7653;48.994;9.212;2023-07-20T10:20:06;23.70;7.80
15105;DHT22;7653;48.994;9.212;2023-07-20T10:22:35;23.90;9.10
15105;DHT22;7653;48.994;9.212;2023-07-20T10:25:01;23.90;8.50
15105;DHT22;7653;48.994;9.212;2023-07-20T10:27:27;23.90;6.50
15105;DHT22;7653;48.994;9.212;2023-07-20T10:29:53;23.60;6.90
15105;DHT22;7653;48.994;9.212;2023-07-20T10:32:20;23.70;9.20
15105;DHT22;7653;48.994;9.212;2023-07-20T10:34:51;24.10;5.60
15105;DHT22;7653;48.994;9.212;2023-07-20T10:40:44;24.10;6.70
15105;DHT22;7653;48.994;9.212;2023-07-20T10:43:19;24.10;3.10
15105;DHT22;7653;48.994;9.212;2023-07-20T10:45:52;24.20;3.40
15105;DHT22;7653;48.994;9.212;2023-07-20T10:48:22;24.00;4.00
15105;DHT22;7653;48.994;9.212;2023-07-20T10:53:36;24.70;4.50
15105;DHT22;7653;48.994;9.212;2023-07-20T10:56:15;24.10;4.10
15105;DHT22;7653;48.994;9.212;2023-07-20T10:58:44;23.70;5.40
15105;DHT22;7653;48.994;9.212;2023-07-20T11:01:14;24.40;4.90
15105;DHT22;7653;48.994;9.212;2023-07-20T11:03:41;24.30;6.20
15105;DHT22;7653;48.994;9.212;2023-07-20T11:06:33;24.30;6.00
15105;DHT22;7653;48.994;9.212;2023-07-20T11:11:32;23.40;5.80
15105;DHT22;7653;48.994;9.212;2023-07-20T11:14:09;23.70;5.40
15105;DHT22;7653;48.994;9.212;2023-07-20T11:16:44;24.00;3.60
15105;DHT22;7653;48.994;9.212;2023-07-20T11:19:23;24.10;3.60
15105;DHT22;7653;48.994;9.212;2023-07-20T11:21:54;24.00;3.70
15105;DHT22;7653;48.994;9.212;2023-07-20T11:24:20;24.10;4.70
15105;DHT22;7653;48.994;9.212;2023-07-20T11:26:48;24.10;5.00
15105;DHT22;7653;48.994;9.212;2023-07-20T11:29:15;24.20;6.30
15105;DHT22;7653;48.994;9.212;2023-07-20T11:31:42;24.00;6.60
15105;DHT22;7653;48.994;9.212;2023-07-20T11:34:17;24.30;5.60
15105;DHT22;7653;48.994;9.212;2023-07-20T11:36:45;23.90;5.90
15105;DHT22;7653;48.994;9.212;2023-07-20T11:39:12;24.40;5.50
15105;DHT22;7653;48.994;9.212;2023-07-20T11:41:38;24.40;4.20
15105;DHT22;7653;48.994;9.212;2023-07-20T11:44:06;24.60;4.80
15105;DHT22;7653;48.994;9.212;2023-07-20T11:46:39;23.80;5.40
15105;DHT22;7653;48.994;9.212;2023-07-20T11:49:05;23.50;6.20
15105;DHT22;7653;48.994;9.212;2023-07-20T11:51:32;24.10;5.30
15105;DHT22;7653;48.994;9.212;2023-07-20T11:53:58;24.00;4.90
15105;DHT22;7653;48.994;9.212;2023-07-20T11:56:25;24.30;5.30
15105;DHT22;7653;48.994;9.212;2023-07-20T11:58:54;24.10;4.30
15105;DHT22;7653;48.994;9.212;2023-07-20T12:01:21;24.30;4.50
15105;DHT22;7653;48.994;9.212;2023-07-20T12:03:48;24.00;3.80
15105;DHT22;7653;48.994;9.212;2023-07-20T12:06:15;23.90;4.20
15105;DHT22;7653;48.994;9.212;2023-07-20T12:08:44;24.20;3.10
15105;DHT22;7653;48.994;9.212;2023-07-20T12:11:10;24.40;2.40
15105;DHT22;7653;48.994;9.212;2023-07-20T12:13:42;24.60;1.20
15105;DHT22;7653;48.994;9.212;2023-07-20T12:16:17;24.00;2.90
15105;DHT22;7653;48.994;9.212;2023-07-20T12:18:43;24.00;2.10
15105;DHT22;7653;48.994;9.212;2023-07-20T12:21:10;24.30;2.20
15105;DHT22;7653;48.994;9.212;2023-07-20T12:23:39;24.70;1.00
15105;DHT22;7653;48.994;9.212;2023-07-20T12:26:10;24.70;1.00
15105;DHT22;7653;48.994;9.212;2023-07-20T12:28:42;24.90;1.00
15105;DHT22;7653;48.994;9.212;2023-07-20T12:31:10;25.20;1.10
15105;DHT22;7653;48.994;9.212;2023-07-20T12:33:37;25.90;1.00
15105;DHT22;7653;48.994;9.212;2023-07-20T12:36:03;25.80;1.00
15105;DHT22;7653;48.994;9.212;2023-07-20T12:38:29;25.40;1.40
15105;DHT22;7653;48.994;9.212;2023-07-20T12:40:56;24.70;1.00
15105;DHT22;7653;48.994;9.212;2023-07-20T12:43:22;24.50;1.40
15105;DHT22;7653;48.994;9.212;2023-07-20T12:45:48;25.00;1.00
15105;DHT22;7653;48.994;9.212;2023-07-20T12:48:14;24.80;1.00
15105;DHT22;7653;48.994;9.212;2023-07-20T12:50:42;24.60;1.00
15105;DHT22;7653;48.994;9.212;2023-07-20T12:53:08;24.70;1.00
15105;DHT22;7653;48.994;9.212;2023-07-20T12:55:34;24.40;1.20
15105;DHT22;7653;48.994;9.212;2023-07-20T12:57:59;24.20;1.00
15105;DHT22;7653;48.994;9.212;2023-07-20T13:00:25;24.10;2.10
15105;DHT22;7653;48.994;9.212;2023-07-20T13:02:51;25.00;1.20
15105;DHT22;7653;48.994;9.212;2023-07-20T13:05:17;25.00;1.00
15105;DHT22;7653;48.994;9.212;2023-07-20T13:07:43;25.20;1.00
15105;DHT22;7653;48.994;9.212;2023-07-20T13:10:09;24.80;1.00
15105;DHT22;7653;48.994;9.212;2023-07-20T13:12:36;25.00;1.00
15105;DHT22;7653;48.994;9.212;2023-07-20T13:15:03;25.20;1.00
15105;DHT22;7653;48.994;9.212;2023-07-20T13:17:37;25.30;1.00
15105;DHT22;7653;48.994;9.212;2023-07-20T13:20:03;26.20;1.00
15105;DHT22;7653;48.994;9.212;2023-07-20T13:22:30;27.20;1.00
15105;DHT22;7653;48.994;9.212;2023-07-20T13:24:56;26.60;1.00
15105;DHT22;7653;48.994;9.212;2023-07-20T13:27:21;26.90;1.00
15105;DHT22;7653;48.994;9.212;2023-07-20T13:29:47;27.20;1.00
15105;DHT22;7653;48.994;9.212;2023-07-20T13:32:14;27.00;1.00
15105;DHT22;7653;48.994;9.212;2023-07-20T13:34:46;26.30;1.00
15105;DHT22;7653;48.994;9.212;2023-07-20T13:37:12;25.70;1.00
15105;DHT22;7653;48.994;9.212;2023-07-20T13:39:38;26.10;1.00
15105;DHT22;7653;48.994;9.212;2023-07-20T13:42:04;26.30;1.00
15105;DHT22;7653;48.994;9.212;2023-07-20T13:44:34;26.80;1.00
15105;DHT22;7653;48.994;9.212;2023-07-20T13:47:00;26.50;1.00
15105;DHT22;7653;48.994;9.212;2023-07-20T13:49:26;26.30;1.00
15105;DHT22;7653;48.994;9.212;2023-07-20T13:51:52;27.20;1.00
15105;DHT22;7653;48.994;9.212;2023-07-20T13:54:18;27.50;1.00
15105;DHT22;7653;48.994;9.212;2023-07-20T13:56:43;28.40;1.00
15105;DHT22;7653;48.994;9.212;2023-07-20T13:59:09;27.80;1.00
15105;DHT22;7653;48.994;9.212;2023-07-20T14:01:35;27.30;1.00
15105;DHT22;7653;48.994;9.212;2023-07-20T14:04:01;26.80;1.00
15105;DHT22;7653;48.994;9.212;2023-07-20T14:06:31;26.30;1.00
15105;DHT22;7653;48.994;9.212;2023-07-20T14:08:58;25.60;1.00
15105;DHT22;7653;48.994;9.212;2023-07-20T14:11:24;26.20;1.00
15105;DHT22;7653;48.994;9.212;2023-07-20T14:13:53;26.70;1.00
15105;DHT22;7653;48.994;9.212;2023-07-20T14:16:22;26.00;1.00
15105;DHT22;7653;48.994;9.212;2023-07-20T14:18:48;26.60;1.00
15105;DHT22;7653;48.994;9.212;2023-07-20T14:21:18;26.20;1.00
15105;DHT22;7653;48.994;9.212;2023-07-20T14:23:48;26.70;1.00
15105;DHT22;7653;48.994;9.212;2023-07-20T14:26:16;26.70;1.00
15105;DHT22;7653;48.994;9.212;2023-07-20T14:28:42;27.20;1.00
15105;DHT22;7653;48.994;9.212;2023-07-20T14:31:08;27.50;1.00
15105;DHT22;7653;48.994;9.212;2023-07-20T14:33:33;26.60;1.00
15105;DHT22;7653;48.994;9.212;2023-07-20T14:35:59;27.10;1.00
15105;DHT22;7653;48.994;9.212;2023-07-20T14:38:33;28.60;1.00
15105;DHT22;7653;48.994;9.212;2023-07-20T14:40:59;29.80;1.00
15105;DHT22;7653;48.994;9.212;2023-07-20T14:43:25;29.90;1.00
15105;DHT22;7653;48.994;9.212;2023-07-20T14:45:50;29.60;1.00
15105;DHT22;7653;48.994;9.212;2023-07-20T14:48:16;28.90;1.00
15105;DHT22;7653;48.994;9.212;2023-07-20T14:50:42;28.00;1.00
15105;DHT22;7653;48.994;9.212;2023-07-20T14:53:11;28.80;1.00
15105;DHT22;7653;48.994;9.212;2023-07-20T14:55:37;29.10;1.00
15105;DHT22;7653;48.994;9.212;2023-07-20T14:58:03;29.70;1.00
15105;DHT22;7653;48.994;9.212;2023-07-20T15:00:28;29.80;1.00
15105;DHT22;7653;48.994;9.212;2023-07-20T15:02:55;30.20;1.00
15105;DHT22;7653;48.994;9.212;2023-07-20T15:05:22;30.60;1.00
15105;DHT22;7653;48.994;9.212;2023-07-20T15:07:49;29.70;1.00
15105;DHT22;7653;48.994;9.212;2023-07-20T15:10:15;28.70;1.00
15105;DHT22;7653;48.994;9.212;2023-07-20T15:12:41;28.70;1.00
15105;DHT22;7653;48.994;9.212;2023-07-20T15:15:12;28.70;1.00
15105;DHT22;7653;48.994;9.212;2023-07-20T15:17:40;28.60;1.00
15105;DHT22;7653;48.994;9.212;2023-07-20T15:20:07;27.40;1.00
15105;DHT22;7653;48.994;9.212;2023-07-20T15:22:33;28.00;1.00
15105;DHT22;7653;48.994;9.212;2023-07-20T15:25:00;29.00;1.00
15105;DHT22;7653;48.994;9.212;2023-07-20T15:27:26;30.00;1.00
15105;DHT22;7653;48.994;9.212;2023-07-20T15:29:51;29.70;1.00
15105;DHT22;7653;48.994;9.212;2023-07-20T15:32:20;28.00;1.00
15105;DHT22;7653;48.994;9.212;2023-07-20T15:34:46;26.60;1.00
15105;DHT22;7653;48.994;9.212;2023-07-20T15:37:12;27.30;1.00
15105;DHT22;7653;48.994;9.212;2023-07-20T15:39:39;28.70;1.00
15105;DHT22;7653;48.994;9.212;2023-07-20T15:42:05;28.00;1.00
15105;DHT22;7653;48.994;9.212;2023-07-20T15:44:31;29.20;1.00
15105;DHT22;7653;48.994;9.212;2023-07-20T15:46:57;29.70;1.00
15105;DHT22;7653;48.994;9.212;2023-07-20T15:49:22;29.50;1.00
15105;DHT22;7653;48.994;9.212;2023-07-20T15:51:50;28.80;1.00
15105;DHT22;7653;48.994;9.212;2023-07-20T15:54:16;28.50;1.00
15105;DHT22;7653;48.994;9.212;2023-07-20T15:56:42;28.00;1.00
15105;DHT22;7653;48.994;9.212;2023-07-20T15:59:10;26.90;1.00
15105;DHT22;7653;48.994;9.212;2023-07-20T16:01:36;28.10;1.00
15105;DHT22;7653;48.994;9.212;2023-07-20T16:04:03;27.10;1.00
15105;DHT22;7653;48.994;9.212;2023-07-20T16:06:28;28.20;1.00
15105;DHT22;7653;48.994;9.212;2023-07-20T16:08:54;28.70;1.00
15105;DHT22;7653;48.994;9.212;2023-07-20T16:11:20;28.70;1.00